Time;durP1;ratioP1;P1;durP2;ratioP2;P2;SDS_P1;SDS_P2;PMS_P1;PMS_P2;Temp;Humidity;BMP_temperature;BMP_pressure;BME280_temperature;BME280_humidity;BME280_pressure;Samples;Min_cycle;Max_cycle;Signal;HPM_P1;HPM_P2
2022/04/10 00:01:37;;;;;;;3.20;2.37;;;10.90;53.10;;;-142.21;83.97;112049.66;5053780;28;20509;-74
2022/04/10 00:04:06;;;;;;;2.93;2.30;;;10.80;53.20;;;-142.21;84.50;112049.66;5053264;28;20482;-74
2022/04/10 00:06:33;;;;;;;3.07;2.20;;;10.80;53.30;;;-142.21;84.47;112049.66;5058128;28;20741;-74
2022/04/10 00:09:01;;;;;;;3.67;2.50;;;10.80;53.40;;;-142.21;84.25;112049.66;5056234;28;20444;-74
2022/04/10 00:11:29;;;;;;;3.20;2.27;;;10.80;53.30;;;-142.21;84.30;112049.66;5053050;28;20487;-74
2022/04/10 00:13:56;;;;;;;3.50;2.30;;;10.80;53.40;;;-142.21;84.50;112049.66;5056170;28;20448;-74
2022/04/10 00:16:23;;;;;;;4.30;2.60;;;10.80;53.40;;;-142.21;84.86;112049.66;5065311;28;20456;-74
2022/04/10 00:18:51;;;;;;;3.37;2.30;;;10.80;53.40;;;-142.21;84.78;112049.66;5064440;28;20475;-74
2022/04/10 00:21:18;;;;;;;2.40;2.20;;;10.80;53.60;;;-142.21;84.54;112049.66;5053219;28;20451;-75
2022/04/10 00:23:45;;;;;;;2.80;2.30;;;10.80;53.60;;;-142.21;84.62;112049.66;5043310;28;20452;-74
2022/04/10 00:26:14;;;;;;;3.57;2.50;;;10.80;53.70;;;-142.21;85.00;112049.66;5051987;28;20460;-74
2022/04/10 00:28:41;;;;;;;2.50;2.30;;;10.80;53.80;;;-142.21;85.44;112049.66;5053496;28;20506;-74
2022/04/10 00:31:08;;;;;;;3.70;2.40;;;10.80;53.60;;;-142.21;85.99;112049.66;5057979;28;21027;-74
2022/04/10 00:33:35;;;;;;;3.10;2.13;;;10.80;53.80;;;-142.21;84.93;112049.66;5056346;28;20543;-74
2022/04/10 00:36:15;;;;;;;2.57;2.17;;;10.70;53.40;;;-142.21;85.88;112049.66;5053130;28;20539;-74
2022/04/10 00:38:42;;;;;;;2.80;2.37;;;10.70;53.80;;;-142.21;85.56;112049.66;5052506;28;20531;-74
2022/04/10 00:41:10;;;;;;;3.63;2.40;;;10.60;53.90;;;-142.21;85.01;112049.66;5052406;28;20448;-74
2022/04/10 00:43:39;;;;;;;4.87;2.47;;;10.60;53.60;;;-142.21;85.57;112049.66;5051757;28;20453;-74
2022/04/10 00:46:07;;;;;;;2.87;2.30;;;10.60;53.50;;;-142.21;86.27;112049.66;5053226;28;20468;-74
2022/04/10 00:48:34;;;;;;;3.07;2.17;;;10.60;53.60;;;-142.21;86.31;112049.66;5044951;28;20446;-74
2022/04/10 00:53:47;;;;;;;3.03;2.00;;;10.40;53.80;;;-142.21;86.23;112049.66;5058678;28;20530;-75
2022/04/10 00:56:15;;;;;;;2.37;2.10;;;10.40;53.90;;;-142.21;86.08;112049.66;5047946;28;20510;-75
2022/04/10 00:58:43;;;;;;;3.03;2.63;;;10.30;54.10;;;-142.21;85.88;112049.66;5051368;28;20491;-74
2022/04/10 01:01:10;;;;;;;2.80;2.33;;;10.30;54.10;;;-142.21;86.57;112049.66;5053265;28;20515;-74
2022/04/10 01:03:37;;;;;;;2.83;2.47;;;10.30;54.30;;;-142.21;86.62;112049.66;5051447;28;20448;-74
2022/04/10 01:06:05;;;;;;;4.13;2.40;;;10.30;54.20;;;-142.21;87.36;112049.66;5058949;28;20439;-75
2022/04/10 01:08:32;;;;;;;2.47;2.20;;;10.20;54.30;;;-142.21;87.99;112049.66;5054798;28;20808;-75
2022/04/10 01:11:00;;;;;;;4.17;2.80;;;10.20;54.40;;;-142.21;87.79;112049.66;5052963;28;20448;-75
2022/04/10 01:13:27;;;;;;;4.30;2.70;;;10.20;54.60;;;-142.21;88.27;112049.66;5063477;28;20445;-74
2022/04/10 01:15:56;;;;;;;4.70;2.17;;;10.20;54.80;;;-142.21;88.53;112049.66;5051367;28;20460;-75
2022/04/10 01:18:25;;;;;;;3.00;2.60;;;10.20;54.80;;;-142.21;89.19;112049.66;5054966;28;20447;-75
2022/04/10 01:20:53;;;;;;;3.63;2.50;;;10.20;54.70;;;-142.21;89.18;112049.66;5055973;28;20513;-74
2022/04/10 01:23:22;;;;;;;3.03;2.70;;;10.20;55.00;;;-142.21;88.73;112049.66;5065039;28;20499;-75
2022/04/10 01:25:49;;;;;;;5.90;2.33;;;10.10;54.90;;;-142.21;88.94;112049.66;5067329;28;20503;-74
2022/04/10 01:28:16;;;;;;;3.17;2.87;;;10.20;55.10;;;-142.21;90.15;112049.66;5063451;28;20452;-74
2022/04/10 01:30:44;;;;;;;4.03;2.77;;;10.10;54.80;;;-142.21;90.40;112049.66;5055343;28;20447;-74
2022/04/10 01:33:11;;;;;;;4.83;2.93;;;10.10;55.20;;;-142.21;90.36;112049.66;5059878;28;20451;-74
2022/04/10 01:35:39;;;;;;;3.53;2.83;;;10.10;55.30;;;-142.21;90.65;112049.66;5050166;28;20437;-74
2022/04/10 01:38:08;;;;;;;3.43;2.40;;;10.10;55.40;;;-142.21;91.24;112049.66;5050955;28;20432;-74
2022/04/10 01:40:37;;;;;;;3.37;2.43;;;10.00;55.40;;;-142.21;91.41;112049.66;5040724;28;20499;-74
2022/04/10 01:43:04;;;;;;;3.53;2.60;;;10.00;55.50;;;-142.21;91.33;112049.66;5050918;28;20535;-74
2022/04/10 01:45:31;;;;;;;4.73;2.80;;;10.00;55.50;;;-142.21;92.04;112049.66;5054063;28;20445;-74
2022/04/10 01:47:58;;;;;;;3.80;2.50;;;9.90;56.50;;;-142.21;92.61;112049.66;5045413;28;20952;-74
2022/04/10 01:50:26;;;;;;;3.03;2.63;;;9.90;56.60;;;-142.21;92.90;112049.66;5067561;28;20454;-74
2022/04/10 01:52:53;;;;;;;2.70;2.40;;;9.90;56.70;;;-142.21;93.69;112049.66;5059854;28;20540;-74
2022/04/10 01:55:20;;;;;;;3.53;3.03;;;9.80;56.50;;;-142.21;93.98;112049.66;5027239;28;20447;-75
2022/04/10 01:57:48;;;;;;;4.10;2.40;;;9.80;57.40;;;-142.21;94.23;112049.66;5033784;28;20433;-74
2022/04/10 02:00:16;;;;;;;3.77;2.70;;;9.70;56.70;;;-142.21;94.95;112049.66;5051698;28;20488;-74
2022/04/10 02:02:43;;;;;;;3.93;3.00;;;9.60;57.10;;;-142.21;95.60;112049.66;5063614;28;21048;-74
2022/04/10 02:05:10;;;;;;;3.07;2.67;;;9.50;57.30;;;-142.21;96.30;112049.66;5063359;28;20458;-74
2022/04/10 02:07:37;;;;;;;2.93;2.63;;;9.40;57.90;;;-142.21;95.86;112049.66;5063945;28;20455;-74
2022/04/10 02:10:05;;;;;;;3.03;2.70;;;9.40;58.10;;;-142.21;96.44;112049.66;5063009;28;20535;-74
2022/04/10 02:12:33;;;;;;;2.87;2.50;;;9.30;58.10;;;-142.21;96.61;112049.66;5056693;28;20488;-74
2022/04/10 02:15:01;;;;;;;3.30;2.57;;;9.30;57.90;;;-142.21;96.62;112049.66;5055380;28;20448;-74
2022/04/10 02:17:29;;;;;;;7.43;3.23;;;9.30;58.10;;;-142.21;97.48;112049.66;5054474;28;20536;-74
2022/04/10 02:19:56;;;;;;;3.97;2.63;;;9.30;58.10;;;-142.21;97.62;112049.66;5063430;28;20569;-73
2022/04/10 02:22:23;;;;;;;3.43;2.63;;;9.20;58.40;;;-142.21;97.50;112049.66;5066362;28;20452;-74
2022/04/10 02:24:53;;;;;;;3.67;2.50;;;9.20;58.40;;;-142.21;97.63;112049.66;5056121;28;20479;-74
2022/04/10 02:27:20;;;;;;;3.93;2.87;;;9.20;58.80;;;-142.21;98.05;112049.66;5041297;28;20458;-74
2022/04/10 02:29:48;;;;;;;6.43;2.90;;;9.20;58.60;;;-142.21;97.55;112049.66;5054345;28;20531;-74
2022/04/10 02:32:16;;;;;;;3.80;2.50;;;9.20;58.60;;;-142.21;98.09;112049.66;5057895;28;20453;-74
2022/04/10 02:34:43;;;;;;;4.10;3.00;;;9.30;58.70;;;-142.21;97.50;112049.66;5053537;28;20554;-75
2022/04/10 02:37:11;;;;;;;4.07;2.73;;;9.20;58.80;;;-142.21;97.28;112049.66;5055524;28;20826;-74
2022/04/10 02:39:38;;;;;;;2.67;2.47;;;9.20;58.60;;;-142.21;97.67;112049.66;5056120;28;20800;-75
2022/04/10 02:42:06;;;;;;;3.90;2.63;;;9.30;58.80;;;-142.21;98.38;112049.66;5055675;28;20462;-74
2022/04/10 02:44:34;;;;;;;3.77;2.50;;;9.30;58.70;;;-142.21;98.14;112049.66;5067232;28;20448;-74
2022/04/10 02:47:01;;;;;;;4.03;2.27;;;9.30;58.80;;;-142.21;97.79;112049.66;5054531;28;21088;-74
2022/04/10 02:49:29;;;;;;;3.90;2.83;;;9.30;58.60;;;-142.21;97.46;112049.66;5051083;28;20438;-74
2022/04/10 02:51:56;;;;;;;3.23;2.60;;;9.40;58.70;;;-142.21;96.17;112049.66;5059339;28;20467;-74
2022/04/10 02:54:23;;;;;;;2.53;2.33;;;9.40;58.50;;;-142.21;95.84;112049.66;5060201;28;20889;-74
2022/04/10 02:56:50;;;;;;;4.13;2.80;;;9.40;58.30;;;-142.21;96.27;112049.66;5053619;28;20657;-74
2022/04/10 02:59:17;;;;;;;3.30;2.50;;;9.50;58.80;;;-142.21;96.73;112049.66;5061568;28;20450;-74
2022/04/10 03:01:44;;;;;;;5.23;2.53;;;9.40;58.30;;;-142.21;96.34;112049.66;5053061;28;21003;-74
2022/04/10 03:04:11;;;;;;;2.80;2.43;;;9.50;58.40;;;-142.21;96.85;112049.66;5054090;28;20817;-74
2022/04/10 03:06:40;;;;;;;4.43;2.70;;;9.50;58.30;;;-142.21;97.02;112049.66;5064549;28;20456;-74
2022/04/10 03:09:07;;;;;;;3.57;2.47;;;9.50;58.30;;;-142.21;97.30;112049.66;5064318;28;20443;-73
2022/04/10 03:11:35;;;;;;;4.47;2.50;;;9.40;58.30;;;-142.21;97.38;112049.66;5062697;28;20480;-76
2022/04/10 03:14:02;;;;;;;2.87;2.50;;;9.40;58.30;;;-142.21;97.50;112049.66;5070076;28;20477;-74
2022/04/10 03:16:29;;;;;;;3.23;2.60;;;9.30;58.50;;;-142.21;97.43;112049.66;5087327;28;20776;-75
2022/04/10 03:18:56;;;;;;;3.60;2.70;;;9.30;58.70;;;-142.21;96.87;112049.66;5086959;28;20448;-75
2022/04/10 03:21:24;;;;;;;3.57;2.80;;;9.30;58.70;;;-142.21;97.09;112049.66;5078386;28;20507;-74
2022/04/10 03:23:52;;;;;;;3.40;2.60;;;9.30;58.80;;;-142.21;95.96;112049.66;5071004;28;20452;-74
2022/04/10 03:26:19;;;;;;;2.77;2.47;;;9.30;58.60;;;-142.21;96.01;112049.66;5072491;28;20457;-74
2022/04/10 03:28:46;;;;;;;4.90;2.70;;;9.30;58.20;;;-142.21;96.49;112049.66;5075523;28;20464;-74
2022/04/10 03:31:13;;;;;;;4.27;2.70;;;9.30;58.30;;;-142.21;95.89;112049.66;5085046;28;20496;-74
2022/04/10 03:33:40;;;;;;;3.20;2.73;;;9.20;58.20;;;-142.21;96.20;112049.66;5078874;28;20454;-74
2022/04/10 03:36:07;;;;;;;3.60;2.60;;;9.20;58.20;;;-142.21;95.96;112049.66;5072991;28;20459;-74
2022/04/10 03:38:35;;;;;;;3.93;2.47;;;9.20;58.30;;;-142.21;96.37;112049.66;5071221;28;20535;-75
2022/04/10 03:41:03;;;;;;;3.13;2.15;;;9.20;58.30;;;-142.21;96.62;112049.66;5047864;28;20571;-74
2022/04/10 03:43:32;;;;;;;3.37;2.70;;;9.20;58.40;;;-142.21;96.80;112049.66;5072414;28;20297;-74
2022/04/10 03:45:59;;;;;;;3.87;2.60;;;9.10;58.30;;;-142.21;97.35;112049.66;5064778;28;20448;-73
2022/04/10 03:48:26;;;;;;;4.65;2.50;;;9.10;58.50;;;-142.21;97.53;112049.66;5052925;28;20475;-73
2022/04/10 03:50:53;;;;;;;4.60;2.70;;;9.10;58.60;;;-142.21;97.37;112049.66;5052558;28;20556;-74
2022/04/10 03:53:21;;;;;;;3.47;2.23;;;9.10;58.60;;;-142.21;96.66;112049.66;5073188;28;20454;-74
2022/04/10 03:55:48;;;;;;;4.97;2.80;;;9.10;58.50;;;-142.21;97.51;112049.66;5063403;28;21030;-74
2022/04/10 03:58:17;;;;;;;2.50;2.30;;;9.10;58.90;;;-142.21;97.29;112049.66;5069192;28;20940;-74
2022/04/10 04:00:45;;;;;;;4.07;2.63;;;9.00;59.00;;;-142.21;97.50;112049.66;5058425;28;20572;-74
2022/04/10 04:03:12;;;;;;;3.60;2.40;;;9.00;59.00;;;-142.21;98.06;112049.66;5054219;28;20550;-74
2022/04/10 04:05:39;;;;;;;3.97;3.00;;;8.90;59.10;;;-142.21;98.05;112049.66;5057951;28;20452;-74
2022/04/10 04:08:07;;;;;;;3.30;2.83;;;8.90;59.60;;;-142.21;98.06;112049.66;5059061;28;20458;-74
2022/04/10 04:10:34;;;;;;;3.90;2.67;;;8.90;59.60;;;-142.21;97.69;112049.66;5051767;28;20452;-74
2022/04/10 04:13:01;;;;;;;2.90;2.53;;;8.90;59.60;;;-142.21;97.87;112049.66;5055871;28;20480;-74
2022/04/10 04:15:30;;;;;;;4.07;2.80;;;8.90;59.60;;;-142.21;98.30;112049.66;5052739;28;21064;-73
2022/04/10 04:17:57;;;;;;;3.60;2.47;;;8.90;59.60;;;-142.21;98.23;112049.66;5066595;28;20998;-74
2022/04/10 04:20:24;;;;;;;6.20;2.80;;;8.90;59.60;;;-142.21;98.60;112049.66;5061776;28;20480;-74
2022/04/10 04:22:53;;;;;;;4.17;3.03;;;9.00;59.60;;;-142.21;98.58;112049.66;5051840;28;20531;-74
2022/04/10 04:25:20;;;;;;;3.43;2.77;;;9.00;59.30;;;-142.21;98.55;112049.66;5056080;28;20474;-73
2022/04/10 04:27:48;;;;;;;3.20;2.77;;;9.00;59.60;;;-142.21;98.55;112049.66;5064410;28;20875;-74
2022/04/10 04:30:15;;;;;;;4.18;2.90;;;9.00;59.40;;;-142.21;98.70;112049.66;5046835;28;20940;-73
2022/04/10 04:32:43;;;;;;;3.87;2.70;;;9.00;59.60;;;-142.21;98.23;112049.66;5070542;28;20205;-74
2022/04/10 04:35:12;;;;;;;3.60;2.97;;;9.10;59.70;;;-142.21;98.16;112049.66;5061081;28;20444;-74
2022/04/10 04:37:41;;;;;;;4.10;2.80;;;9.00;59.60;;;-142.21;98.72;112049.66;5052343;28;20461;-74
2022/04/10 04:40:10;;;;;;;4.53;3.17;;;9.00;59.90;;;-142.21;98.26;112049.66;5060331;28;20449;-74
2022/04/10 04:42:37;;;;;;;3.47;2.93;;;8.90;59.80;;;-142.21;98.79;112049.66;5061092;28;20551;-73
2022/04/10 04:45:06;;;;;;;3.93;3.07;;;8.90;59.90;;;-142.21;99.45;112049.66;5063062;28;20778;-74
2022/04/10 04:47:33;;;;;;;4.47;2.97;;;8.90;60.00;;;-142.21;99.63;112049.66;5053431;28;20976;-74
2022/04/10 04:50:01;;;;;;;3.87;3.03;;;8.90;59.80;;;-142.21;98.99;112049.66;5051897;28;20440;-74
2022/04/10 04:52:28;;;;;;;4.03;2.97;;;8.90;59.90;;;-142.21;98.76;112049.66;5049852;28;20979;-74
2022/04/10 04:54:55;;;;;;;5.03;2.80;;;9.00;59.60;;;-142.21;98.56;112049.66;5049102;28;20449;-74
2022/04/10 04:57:23;;;;;;;3.20;2.90;;;9.00;59.50;;;-142.21;98.28;112049.66;5069063;28;20451;-74
2022/04/10 04:59:50;;;;;;;3.33;2.77;;;9.00;59.50;;;-142.21;99.02;112049.66;5054363;28;20444;-74
2022/04/10 05:02:17;;;;;;;4.67;3.20;;;9.10;59.50;;;-142.21;98.24;112049.66;5052643;28;20832;-73
2022/04/10 05:04:44;;;;;;;4.30;3.17;;;9.10;59.40;;;-142.21;98.40;112049.66;5050478;28;20448;-74
2022/04/10 05:07:12;;;;;;;4.80;3.07;;;9.00;59.30;;;-142.21;98.68;112049.66;5054788;28;20458;-74
2022/04/10 05:09:40;;;;;;;4.53;3.23;;;9.00;59.30;;;-142.21;98.90;112049.66;5063031;28;20983;-73
2022/04/10 05:12:09;;;;;;;5.33;3.27;;;8.90;59.60;;;-142.21;99.47;112049.66;5050122;28;20567;-74
2022/04/10 05:14:36;;;;;;;3.33;3.00;;;8.90;59.80;;;-142.21;99.01;112049.66;5053548;28;20539;-74
2022/04/10 05:17:04;;;;;;;3.90;3.20;;;8.80;59.60;;;-142.21;98.81;112049.66;5060502;28;20440;-74
2022/04/10 05:19:31;;;;;;;4.47;3.17;;;8.80;59.90;;;-142.21;99.33;112049.66;5054157;28;20452;-74
2022/04/10 05:21:58;;;;;;;3.90;3.20;;;8.90;60.00;;;-142.21;99.47;112049.66;5051535;28;20542;-73
2022/04/10 05:24:28;;;;;;;5.03;3.80;;;8.90;60.10;;;-142.21;99.52;112049.66;5049683;28;20476;-74
2022/04/10 05:26:55;;;;;;;5.22;3.72;;;8.90;60.00;;;-142.21;99.04;112049.66;5058863;28;20801;-74
2022/04/10 05:29:22;;;;;;;4.63;3.40;;;8.90;60.10;;;-142.21;99.89;112049.66;5057000;28;20197;-74
2022/04/10 05:31:49;;;;;;;4.37;3.40;;;8.90;60.20;;;-142.21;99.50;112049.66;5051155;28;20506;-74
2022/04/10 05:34:17;;;;;;;3.97;3.10;;;9.00;60.00;;;-142.21;99.35;112049.66;5051375;28;20452;-74
2022/04/10 05:36:44;;;;;;;4.13;3.10;;;9.10;60.10;;;-142.21;99.30;112049.66;5047563;28;20461;-74
2022/04/10 05:39:11;;;;;;;4.30;3.57;;;9.10;60.20;;;-142.21;99.30;112049.66;5059141;28;20806;-74
2022/04/10 05:41:39;;;;;;;7.13;3.60;;;9.20;59.90;;;-142.21;99.12;112049.66;5056173;28;20491;-74
2022/04/10 05:44:06;;;;;;;3.90;3.43;;;9.20;59.70;;;-142.21;98.89;112049.66;5056191;28;20480;-74
2022/04/10 05:46:38;;;;;;;7.67;4.50;;;9.30;59.40;;;-142.21;99.80;112049.66;5056278;28;20452;-74
2022/04/10 05:49:06;;;;;;;4.13;3.10;;;9.30;59.80;;;-142.21;98.86;112049.66;5056117;28;20433;-73
2022/04/10 05:51:33;;;;;;;4.33;3.73;;;9.30;59.50;;;-142.21;98.32;112049.66;5060984;28;20520;-73
2022/04/10 05:54:01;;;;;;;4.70;3.60;;;9.30;59.80;;;-142.21;98.78;112049.66;5055673;28;20454;-74
2022/04/10 05:56:28;;;;;;;6.17;3.13;;;9.40;59.70;;;-142.21;98.83;112049.66;5062570;28;20443;-74
2022/04/10 05:58:56;;;;;;;3.37;3.07;;;9.50;59.60;;;-142.21;98.37;112049.66;5059831;28;20452;-73
2022/04/10 06:01:24;;;;;;;7.33;3.60;;;9.50;59.40;;;-142.21;97.97;112049.66;5051387;28;20548;-74
2022/04/10 06:03:51;;;;;;;4.27;3.50;;;9.60;60.00;;;-142.21;96.90;112049.66;5055797;28;20444;-74
2022/04/10 06:06:18;;;;;;;4.57;3.90;;;9.50;59.30;;;-142.21;97.93;112049.66;5048421;28;20449;-74
2022/04/10 06:08:45;;;;;;;4.83;3.40;;;9.50;59.70;;;-142.21;98.00;112049.66;5064358;28;20569;-74
2022/04/10 06:11:13;;;;;;;4.27;3.67;;;9.60;59.50;;;-142.21;96.74;112049.66;5049055;28;20478;-75
2022/04/10 06:13:40;;;;;;;6.40;3.80;;;9.60;59.10;;;-142.21;96.69;112049.66;5050566;28;20447;-74
2022/04/10 06:16:09;;;;;;;5.87;3.60;;;9.60;59.20;;;-142.21;96.58;112049.66;5047213;28;20535;-74
2022/04/10 06:18:36;;;;;;;5.67;3.63;;;9.70;59.20;;;-142.21;96.88;112049.66;5058561;28;20452;-74
2022/04/10 06:21:03;;;;;;;3.67;3.00;;;9.60;58.70;;;-142.21;98.35;112049.66;5053233;28;20580;-74
2022/04/10 06:23:30;;;;;;;5.37;3.40;;;9.70;59.10;;;-142.21;96.49;112049.66;5042819;28;20996;-74
2022/04/10 06:25:57;;;;;;;6.70;3.63;;;9.70;58.90;;;-142.21;96.80;112049.66;5049008;28;20964;-74
2022/04/10 06:28:24;;;;;;;4.63;3.43;;;9.70;59.10;;;-142.21;96.25;112049.66;5036840;28;20528;-74
2022/04/10 06:30:51;;;;;;;5.37;3.57;;;9.70;59.00;;;-142.21;96.58;112049.66;5040928;28;20449;-74
2022/04/10 06:33:20;;;;;;;4.17;3.43;;;9.80;58.90;;;-142.21;96.34;112049.66;5049300;28;20452;-75
2022/04/10 06:35:47;;;;;;;5.47;3.90;;;9.80;58.60;;;-142.21;96.17;112049.66;5050988;28;20448;-73
2022/04/10 06:38:14;;;;;;;4.43;2.93;;;9.90;58.70;;;-142.21;95.75;112049.66;5039812;28;20452;-74
2022/04/10 06:40:41;;;;;;;5.43;3.60;;;9.90;58.50;;;-142.21;96.49;112049.66;5049213;28;20488;-74
2022/04/10 06:43:08;;;;;;;4.60;3.47;;;10.00;57.90;;;-142.21;96.23;112049.66;5051178;28;20499;-74
2022/04/10 06:45:36;;;;;;;4.80;3.37;;;10.10;57.70;;;-142.21;95.91;112049.66;5047295;28;20456;-74
2022/04/10 06:48:03;;;;;;;4.90;3.67;;;10.10;57.50;;;-142.21;96.12;112049.66;5043270;28;20451;-74
2022/04/10 06:50:31;;;;;;;4.50;3.00;;;10.10;57.60;;;-142.21;95.72;112049.66;5035429;28;20491;-74
2022/04/10 06:52:58;;;;;;;4.00;3.53;;;10.10;57.00;;;-142.21;95.64;112049.66;5040121;28;20789;-74
2022/04/10 06:55:26;;;;;;;6.90;3.07;;;10.10;57.40;;;-142.21;95.17;112049.66;5045373;28;20445;-74
2022/04/10 06:57:53;;;;;;;4.03;2.90;;;10.20;57.10;;;-142.21;95.26;112049.66;5050022;28;20542;-74
2022/04/10 07:00:22;;;;;;;4.03;3.27;;;10.30;57.10;;;-142.21;95.71;112049.66;5048269;28;20444;-75
2022/04/10 07:02:49;;;;;;;5.03;3.33;;;10.30;56.90;;;-142.21;94.18;112049.66;5053509;28;20526;-75
2022/04/10 07:05:16;;;;;;;4.67;3.80;;;10.40;56.70;;;-142.21;94.16;112049.66;5053097;28;20445;-74
2022/04/10 07:07:45;;;;;;;4.83;3.47;;;10.50;56.60;;;-142.21;94.26;112049.66;5053991;28;20535;-73
2022/04/10 07:10:12;;;;;;;5.00;3.53;;;10.60;56.70;;;-142.21;94.97;112049.66;5060680;28;20450;-74
2022/04/10 07:12:39;;;;;;;5.03;3.40;;;10.70;56.70;;;-142.21;94.43;112049.66;5053333;28;20549;-73
2022/04/10 07:15:07;;;;;;;3.60;3.20;;;10.80;56.50;;;-142.21;93.56;112049.66;5053592;28;20820;-73
2022/04/10 07:17:34;;;;;;;4.57;3.50;;;10.90;56.00;;;-142.21;92.49;112049.66;5049318;28;20449;-73
2022/04/10 07:20:02;;;;;;;4.17;3.30;;;10.90;55.70;;;-142.21;92.59;112049.66;5051757;28;20539;-71
2022/04/10 07:25:16;;;;;;;5.40;3.30;;;11.10;55.20;;;-142.21;92.44;112049.66;5050635;28;20461;-72
2022/04/10 07:27:45;;;;;;;3.57;3.10;;;11.10;55.40;;;-142.21;91.60;112049.66;5057371;28;20544;-72
2022/04/10 07:30:13;;;;;;;3.33;3.00;;;11.20;55.20;;;-142.21;91.56;112049.66;5034166;28;20483;-73
2022/04/10 07:32:40;;;;;;;4.73;3.17;;;11.20;54.90;;;-142.21;91.85;112049.66;5046046;28;20448;-74
2022/04/10 07:35:08;;;;;;;5.83;3.50;;;11.30;55.00;;;-142.21;91.76;112049.66;5049155;28;20488;-73
2022/04/10 07:37:35;;;;;;;4.50;3.30;;;11.30;55.20;;;-142.21;90.20;112049.66;5064189;28;20463;-74
2022/04/10 07:40:07;;;;;;;3.20;2.90;;;11.30;54.50;;;-142.21;92.12;112049.66;5066837;28;20452;-73
2022/04/10 07:42:39;;;;;;;4.03;3.23;;;11.30;54.90;;;-142.21;90.06;112049.66;5050783;28;20963;-74
2022/04/10 07:45:08;;;;;;;5.83;3.43;;;11.40;54.60;;;-142.21;90.81;112049.66;5053376;28;20445;-72
2022/04/10 07:47:34;;;;;;;3.47;3.03;;;11.40;54.60;;;-142.21;91.54;112049.66;5066530;28;20444;-74
2022/04/10 07:50:01;;;;;;;4.50;3.30;;;11.50;55.10;;;-142.21;90.10;112049.66;5054937;28;20448;-72
2022/04/10 07:52:28;;;;;;;3.70;2.93;;;11.80;54.70;;;-142.21;87.80;112049.66;5048884;28;21146;-72
2022/04/10 07:54:55;;;;;;;3.80;3.40;;;11.90;53.70;;;-142.21;88.42;112049.66;5048853;28;20927;-72
2022/04/10 07:57:23;;;;;;;3.87;2.90;;;12.00;53.90;;;-142.21;87.88;112049.66;5061768;28;20452;-72
2022/04/10 07:59:51;;;;;;;4.50;3.13;;;12.00;53.30;;;-142.21;88.97;112049.66;5051586;28;20449;-71
2022/04/10 08:02:18;;;;;;;3.90;3.50;;;12.10;53.60;;;-142.21;88.05;112049.66;5052655;28;20516;-72
2022/04/10 08:04:45;;;;;;;4.40;3.53;;;12.30;53.50;;;-142.21;87.78;112049.66;5050165;28;20960;-73
2022/04/10 08:07:13;;;;;;;3.33;3.00;;;12.40;53.10;;;-142.21;85.95;112049.66;5052525;28;20552;-76
2022/04/10 08:09:40;;;;;;;3.43;2.70;;;12.50;52.80;;;-142.21;86.33;112049.66;5052478;28;20539;-74
2022/04/10 08:12:08;;;;;;;5.30;3.13;;;12.60;52.60;;;-142.21;86.11;112049.66;5052312;28;20475;-73
2022/04/10 08:14:35;;;;;;;3.93;3.30;;;12.80;52.50;;;-142.21;84.06;112049.66;5048924;28;20475;-74
2022/04/10 08:17:09;;;;;;;4.30;3.40;;;12.90;52.20;;;-142.21;84.61;112049.66;5038078;28;20551;-75
2022/04/10 08:19:36;;;;;;;3.40;2.80;;;13.00;51.90;;;-142.21;81.73;112049.66;5045342;28;20933;-75
2022/04/10 08:22:04;;;;;;;4.80;3.20;;;13.20;51.40;;;-142.21;80.35;112049.66;5045622;28;20575;-74
2022/04/10 08:24:31;;;;;;;4.17;2.90;;;13.20;50.60;;;-142.21;80.64;112049.66;5052211;28;20496;-74
2022/04/10 08:26:59;;;;;;;5.30;3.13;;;13.20;51.00;;;-142.21;82.75;112049.66;5036803;28;20540;-77
2022/04/10 08:29:27;;;;;;;3.47;3.17;;;13.30;51.00;;;-142.21;79.87;112049.66;5041740;28;20511;-75
2022/04/10 08:31:54;;;;;;;3.37;3.07;;;13.50;50.70;;;-142.21;78.38;112049.66;5045007;28;20521;-74
2022/04/10 08:34:22;;;;;;;5.53;3.13;;;13.60;50.00;;;-142.21;77.88;112049.66;5055555;28;20527;-75
2022/04/10 08:36:50;;;;;;;4.53;3.40;;;13.80;50.60;;;-142.21;75.30;112049.66;5042959;28;20534;-75
2022/04/10 08:39:17;;;;;;;4.63;3.00;;;13.80;49.20;;;-142.21;75.58;112049.66;5052985;28;20531;-75
2022/04/10 08:41:46;;;;;;;4.33;3.27;;;13.90;49.50;;;-142.21;74.51;112049.66;5052594;28;20496;-74
2022/04/10 08:44:17;;;;;;;4.60;3.20;;;13.80;48.60;;;-142.21;77.21;112049.66;5053106;28;21049;-74
2022/04/10 08:46:48;;;;;;;3.83;3.33;;;13.60;49.00;;;-142.21;75.90;112049.66;5069038;28;20916;-74
2022/04/10 08:49:16;;;;;;;3.93;3.10;;;13.50;49.00;;;-142.21;77.52;112049.66;5055172;28;20445;-74
2022/04/10 08:51:45;;;;;;;5.10;3.23;;;13.40;49.50;;;-142.21;79.95;112049.66;5047392;28;20451;-73
2022/04/10 08:54:14;;;;;;;4.47;3.00;;;13.30;50.00;;;-142.21;78.79;112049.66;5051842;28;20959;-74
2022/04/10 08:56:41;;;;;;;4.40;3.30;;;13.30;49.70;;;-142.21;77.85;112049.66;5060644;28;20445;-75
2022/04/10 08:59:09;;;;;;;3.27;2.83;;;13.30;50.10;;;-142.21;76.17;112049.66;5046094;28;20847;-75
2022/04/10 09:01:36;;;;;;;4.03;3.13;;;13.40;49.70;;;-142.21;75.37;112049.66;5032063;28;20461;-75
2022/04/10 09:04:04;;;;;;;5.63;3.17;;;13.30;49.30;;;-142.21;73.56;112049.66;5051490;28;20530;-75
2022/04/10 09:06:32;;;;;;;6.13;3.07;;;13.30;48.90;;;-142.21;75.44;112049.66;5072007;28;20458;-77
2022/04/10 09:09:12;;;;;;;3.50;2.80;;;13.20;49.30;;;-142.21;77.68;112049.66;5060194;28;20534;-75
2022/04/10 09:11:40;;;;;;;4.90;2.77;;;13.20;49.60;;;-142.21;78.04;112049.66;4996982;28;20484;-76
2022/04/10 09:14:08;;;;;;;4.13;2.70;;;13.20;49.70;;;-142.21;76.33;112049.66;5050350;28;20432;-76
2022/04/10 09:16:36;;;;;;;4.33;3.13;;;13.10;49.50;;;-142.21;76.04;112049.66;5052073;28;20452;-76
2022/04/10 09:19:08;;;;;;;3.67;3.30;;;13.00;49.70;;;-142.21;77.04;112049.66;5052334;28;20472;-75
2022/04/10 09:21:37;;;;;;;4.50;3.10;;;13.00;49.80;;;-142.21;79.43;112049.66;5021715;28;20449;-75
2022/04/10 09:24:08;;;;;;;5.10;3.30;;;13.00;50.50;;;-142.21;74.54;112049.66;5050491;28;20538;-75
2022/04/10 09:26:47;;;;;;;4.57;2.77;;;13.00;49.50;;;-142.21;75.82;112049.66;5063926;28;20476;-76
2022/04/10 09:29:16;;;;;;;5.97;3.23;;;12.90;49.70;;;-142.21;78.40;112049.66;5050611;28;20452;-74
2022/04/10 09:31:44;;;;;;;5.23;3.17;;;12.90;49.90;;;-142.21;77.83;112049.66;5045821;28;20464;-75
2022/04/10 09:34:15;;;;;;;3.60;3.10;;;13.10;50.20;;;-142.21;76.05;112049.66;5058858;28;20538;-76
2022/04/10 09:36:45;;;;;;;3.50;2.73;;;13.40;49.40;;;-142.21;76.92;112049.66;5058004;28;20538;-75
2022/04/10 09:39:15;;;;;;;3.47;2.90;;;14.00;50.00;;;-142.21;76.99;112049.66;5067848;28;20450;-75
2022/04/10 09:41:44;;;;;;;3.30;3.00;;;14.80;49.80;;;-142.21;74.75;112049.66;5064991;28;20550;-75
2022/04/10 09:44:17;;;;;;;3.67;3.10;;;15.20;48.50;;;-142.21;70.43;112049.66;5058379;28;20550;-75
2022/04/10 09:46:56;;;;;;;4.27;3.17;;;15.30;46.50;;;-142.21;72.27;112049.66;5070192;28;20792;-74
2022/04/10 09:49:23;;;;;;;3.13;2.93;;;15.40;47.50;;;-142.21;70.68;112049.66;5034844;28;20448;-75
2022/04/10 09:52:06;;;;;;;3.30;2.77;;;15.60;47.40;;;-142.21;73.40;112049.66;5045549;28;20878;-75
2022/04/10 09:54:40;;;;;;;5.40;3.00;;;16.00;47.50;;;-142.21;67.38;112049.66;5050326;28;20955;-75
2022/04/10 09:57:13;;;;;;;3.97;2.90;;;16.30;46.20;;;-142.21;69.25;112049.66;5037908;28;20528;-75
2022/04/10 09:59:43;;;;;;;4.43;3.00;;;16.40;46.20;;;-142.21;64.92;112049.66;5050505;28;20436;-75
2022/04/10 10:02:12;;;;;;;3.47;3.10;;;16.60;46.20;;;-142.21;63.37;112049.66;5066939;28;20482;-74
2022/04/10 10:04:41;;;;;;;4.10;2.73;;;16.70;45.50;;;-142.21;61.97;112049.66;5052365;28;20447;-76
2022/04/10 10:07:11;;;;;;;3.70;3.10;;;16.40;44.00;;;-142.21;61.38;112049.66;5050994;28;20452;-74
2022/04/10 10:09:41;;;;;;;4.93;3.13;;;16.10;44.30;;;-142.21;63.88;112049.66;5045934;28;20444;-75
2022/04/10 10:12:09;;;;;;;3.23;2.80;;;15.80;44.70;;;-142.21;63.08;112049.66;5042707;28;20820;-78